(°C)
(°C)
SSW
S
S
S
S
S
S
(km/h)
4-9
4-9
5-10
5-10
6-12
6-14
7-16
(mm)
0
0
0
0
0
0
0
(%)
0
0
0
0
0
0
0

Wysokość słońca

/ -31.2°
sun-icon
UV 2
06:50
19:28
Przybywający Księżyc garbaty (149°)
19:14
02:34

METAR dla 55.27°N 86.11°E (UNEE)

Czas Warunki Temperatura/
Punkt rosy
Wiatr Widzialność Pogoda Chmury Ciśn. atm. Zmień Surowy
VFR 9°C / 4°C 240º 6kt >10km - Clouds and Visibility OK 1009 No Significant change UNEE 181630Z 24003MPS CAVOK 09/04 Q1009 R23/CLRD60 NOSIG RMK QFE734
VFR 9°C / 4°C 270º 8kt >10km - Clouds and Visibility OK 1009 No Significant change UNEE 181600Z 27004MPS CAVOK 09/04 Q1009 R23/CLRD60 NOSIG RMK QFE734
VFR 10°C / 4°C 220º 8kt >10km - Clouds and Visibility OK 1009 No Significant change UNEE 181530Z 22004MPS CAVOK 10/04 Q1009 R23/CLRD60 NOSIG RMK QFE734
VFR 10°C / 4°C 210º 8kt >10km - Clouds and Visibility OK 1009 No Significant change UNEE 181500Z 21004MPS CAVOK 10/04 Q1009 R23/CLRD60 NOSIG RMK QFE734
VFR 9°C / 3°C 200º 6kt >10km - Clouds and Visibility OK 1009 No Significant change UNEE 181430Z 20003MPS CAVOK 09/03 Q1009 R23/CLRD60 NOSIG RMK QFE734
VFR 10°C / 3°C 210º 6kt >10km - Clouds and Visibility OK 1009 No Significant change UNEE 181400Z 21003MPS CAVOK 10/03 Q1009 R23/CLRD60 NOSIG RMK QFE734
VFR 11°C / 4°C 210º 6kt >10km - Clouds and Visibility OK 1009 No Significant change UNEE 181330Z 21003MPS CAVOK 11/04 Q1009 R23/CLRD60 NOSIG RMK QFE734
VFR 11°C / 3°C 200º 6kt >10km - Clouds and Visibility OK 1008 No Significant change UNEE 181300Z 20003MPS CAVOK 11/03 Q1008 R23/CLRD60 NOSIG RMK QFE733
VFR 11°C / 3°C 210º 6kt >10km - Clouds and Visibility OK 1008 No Significant change UNEE 181230Z 21003MPS CAVOK 11/03 Q1008 R23/CLRD60 NOSIG RMK QFE733
VFR 11°C / 4°C 220º 6kt >10km - Clouds and Visibility OK 1008 No Significant change UNEE 181200Z 22003MPS CAVOK 11/04 Q1008 R23/CLRD60 NOSIG RMK QFE733
VFR 12°C / 4°C 200º 4kt >10km - Clouds and Visibility OK 1008 No Significant change UNEE 181130Z 20002MPS CAVOK 12/04 Q1008 R23/CLRD60 NOSIG RMK QFE733
VFR 13°C / 3°C 230º 10kt >10km - Clouds and Visibility OK 1008 No Significant change UNEE 181100Z 23005MPS CAVOK 13/03 Q1008 R23/CLRD60 NOSIG RMK QFE733
VFR 13°C / 4°C 220º 10kt >10km - Broken Clouds 4900ft 1008 No Significant change UNEE 181030Z 22005MPS 9999 BKN049 13/04 Q1008 R23/CLRD60 NOSIG RMK QFE733
VFR 14°C / 4°C 220º 8kt >10km - Broken Clouds 4900ft 1007 No Significant change UNEE 181000Z 22004MPS 9999 BKN049 14/04 Q1007 R23/CLRD60 NOSIG RMK QFE733
VFR 14°C / 4°C 210º 10kt >10km - Clouds and Visibility OK 1007 No Significant change UNEE 180930Z 21005MPS CAVOK 14/04 Q1007 R23/CLRD60 NOSIG RMK QFE732
VFR 14°C / 4°C 220º 10kt >10km - Broken Clouds 3900ft 1007 No Significant change UNEE 180900Z 22005MPS 9999 BKN039CB 14/04 Q1007 R23/CLRD60 NOSIG RMK QFE732
VFR 14°C / 4°C 220º 10kt >10km - Broken Clouds 4000ft 1007 No Significant change UNEE 180830Z 22005MPS 9999 BKN040CB 14/04 Q1007 R23/CLRD60 NOSIG RMK QFE732
VFR 13°C / 5°C 210º 10kt >10km - Broken Clouds 4400ft 1006 No Significant change UNEE 180800Z 21005MPS 9999 BKN044CB 13/05 Q1006 R23/CLRD60 NOSIG RMK QFE732
MVFR 14°C / 6°C 240º variable 180º to 270º 8kt >10km - Broken Clouds 2800ft 1006 No Significant change UNEE 180730Z 24004MPS 180V270 9999 BKN028CB 14/06 Q1006 R23/CLRD60 NOSIG RMK QFE732
MVFR 13°C / 6°C 200º 10kt >10km - Broken Clouds 2700ft 1006 No Significant change UNEE 180700Z 20005MPS 9999 BKN027CB 13/06 Q1006 R23/CLRD60 NOSIG RMK QFE732
VFR 13°C / 5°C 220º 14kt >10km - Broken Clouds 4300ft 1006 No Significant change UNEE 180630Z 22007MPS 9999 BKN043CB 13/05 Q1006 R23/CLRD60 NOSIG RMK QFE732
MVFR 13°C / 6°C 230º 10kt >10km - Broken Clouds 2600ft 1006 No Significant change UNEE 180600Z 23005MPS 9999 BKN026CB 13/06 Q1006 R23/CLRD60 NOSIG RMK QFE732
VFR 12°C / 5°C 210º 10kt >10km - Broken Clouds 4000ft 1006 No Significant change UNEE 180530Z 21005MPS 9999 BKN040CB 12/05 Q1006 R23/CLRD60 NOSIG RMK QFE731
MVFR 13°C / 5°C 230º 12kt >10km - Broken Clouds 2600ft 1005 No Significant change UNEE 180500Z 23006MPS 9999 BKN026CB 13/05 Q1005 R23/CLRD60 NOSIG RMK QFE731

VFR

9°C / 4°C

[Więcej]
Wiatr 240º 6kt
Widzialność >10km
Pogoda -
Chmury Clouds and Visibility OK
Ciśn. atm. 1009
Zmień No Significant change
Surowy UNEE 181630Z 24003MPS CAVOK 09/04 Q1009 R23/CLRD60 NOSIG RMK QFE734

VFR

9°C / 4°C

[Więcej]
Wiatr 270º 8kt
Widzialność >10km
Pogoda -
Chmury Clouds and Visibility OK
Ciśn. atm. 1009
Zmień No Significant change
Surowy UNEE 181600Z 27004MPS CAVOK 09/04 Q1009 R23/CLRD60 NOSIG RMK QFE734

VFR

10°C / 4°C

[Więcej]
Wiatr 220º 8kt
Widzialność >10km
Pogoda -
Chmury Clouds and Visibility OK
Ciśn. atm. 1009
Zmień No Significant change
Surowy UNEE 181530Z 22004MPS CAVOK 10/04 Q1009 R23/CLRD60 NOSIG RMK QFE734

VFR

10°C / 4°C

[Więcej]
Wiatr 210º 8kt
Widzialność >10km
Pogoda -
Chmury Clouds and Visibility OK
Ciśn. atm. 1009
Zmień No Significant change
Surowy UNEE 181500Z 21004MPS CAVOK 10/04 Q1009 R23/CLRD60 NOSIG RMK QFE734

VFR

9°C / 3°C

[Więcej]
Wiatr 200º 6kt
Widzialność >10km
Pogoda -
Chmury Clouds and Visibility OK
Ciśn. atm. 1009
Zmień No Significant change
Surowy UNEE 181430Z 20003MPS CAVOK 09/03 Q1009 R23/CLRD60 NOSIG RMK QFE734

VFR

10°C / 3°C

[Więcej]
Wiatr 210º 6kt
Widzialność >10km
Pogoda -
Chmury Clouds and Visibility OK
Ciśn. atm. 1009
Zmień No Significant change
Surowy UNEE 181400Z 21003MPS CAVOK 10/03 Q1009 R23/CLRD60 NOSIG RMK QFE734

VFR

11°C / 4°C

[Więcej]
Wiatr 210º 6kt
Widzialność >10km
Pogoda -
Chmury Clouds and Visibility OK
Ciśn. atm. 1009
Zmień No Significant change
Surowy UNEE 181330Z 21003MPS CAVOK 11/04 Q1009 R23/CLRD60 NOSIG RMK QFE734

VFR

11°C / 3°C

[Więcej]
Wiatr 200º 6kt
Widzialność >10km
Pogoda -
Chmury Clouds and Visibility OK
Ciśn. atm. 1008
Zmień No Significant change
Surowy UNEE 181300Z 20003MPS CAVOK 11/03 Q1008 R23/CLRD60 NOSIG RMK QFE733

VFR

11°C / 3°C

[Więcej]
Wiatr 210º 6kt
Widzialność >10km
Pogoda -
Chmury Clouds and Visibility OK
Ciśn. atm. 1008
Zmień No Significant change
Surowy UNEE 181230Z 21003MPS CAVOK 11/03 Q1008 R23/CLRD60 NOSIG RMK QFE733

VFR

11°C / 4°C

[Więcej]
Wiatr 220º 6kt
Widzialność >10km
Pogoda -
Chmury Clouds and Visibility OK
Ciśn. atm. 1008
Zmień No Significant change
Surowy UNEE 181200Z 22003MPS CAVOK 11/04 Q1008 R23/CLRD60 NOSIG RMK QFE733

VFR

12°C / 4°C

[Więcej]
Wiatr 200º 4kt
Widzialność >10km
Pogoda -
Chmury Clouds and Visibility OK
Ciśn. atm. 1008
Zmień No Significant change
Surowy UNEE 181130Z 20002MPS CAVOK 12/04 Q1008 R23/CLRD60 NOSIG RMK QFE733

VFR

13°C / 3°C

[Więcej]
Wiatr 230º 10kt
Widzialność >10km
Pogoda -
Chmury Clouds and Visibility OK
Ciśn. atm. 1008
Zmień No Significant change
Surowy UNEE 181100Z 23005MPS CAVOK 13/03 Q1008 R23/CLRD60 NOSIG RMK QFE733

VFR

13°C / 4°C

[Więcej]
Wiatr 220º 10kt
Widzialność >10km
Pogoda -
Chmury Broken Clouds 4900ft
Ciśn. atm. 1008
Zmień No Significant change
Surowy UNEE 181030Z 22005MPS 9999 BKN049 13/04 Q1008 R23/CLRD60 NOSIG RMK QFE733

VFR

14°C / 4°C

[Więcej]
Wiatr 220º 8kt
Widzialność >10km
Pogoda -
Chmury Broken Clouds 4900ft
Ciśn. atm. 1007
Zmień No Significant change
Surowy UNEE 181000Z 22004MPS 9999 BKN049 14/04 Q1007 R23/CLRD60 NOSIG RMK QFE733

VFR

14°C / 4°C

[Więcej]
Wiatr 210º 10kt
Widzialność >10km
Pogoda -
Chmury Clouds and Visibility OK
Ciśn. atm. 1007
Zmień No Significant change
Surowy UNEE 180930Z 21005MPS CAVOK 14/04 Q1007 R23/CLRD60 NOSIG RMK QFE732

VFR

14°C / 4°C

[Więcej]
Wiatr 220º 10kt
Widzialność >10km
Pogoda -
Chmury Broken Clouds 3900ft
Ciśn. atm. 1007
Zmień No Significant change
Surowy UNEE 180900Z 22005MPS 9999 BKN039CB 14/04 Q1007 R23/CLRD60 NOSIG RMK QFE732

VFR

14°C / 4°C

[Więcej]
Wiatr 220º 10kt
Widzialność >10km
Pogoda -
Chmury Broken Clouds 4000ft
Ciśn. atm. 1007
Zmień No Significant change
Surowy UNEE 180830Z 22005MPS 9999 BKN040CB 14/04 Q1007 R23/CLRD60 NOSIG RMK QFE732

VFR

13°C / 5°C

[Więcej]
Wiatr 210º 10kt
Widzialność >10km
Pogoda -
Chmury Broken Clouds 4400ft
Ciśn. atm. 1006
Zmień No Significant change
Surowy UNEE 180800Z 21005MPS 9999 BKN044CB 13/05 Q1006 R23/CLRD60 NOSIG RMK QFE732

MVFR

14°C / 6°C

[Więcej]
Wiatr 240º variable 180º to 270º 8kt
Widzialność >10km
Pogoda -
Chmury Broken Clouds 2800ft
Ciśn. atm. 1006
Zmień No Significant change
Surowy UNEE 180730Z 24004MPS 180V270 9999 BKN028CB 14/06 Q1006 R23/CLRD60 NOSIG RMK QFE732

MVFR

13°C / 6°C

[Więcej]
Wiatr 200º 10kt
Widzialność >10km
Pogoda -
Chmury Broken Clouds 2700ft
Ciśn. atm. 1006
Zmień No Significant change
Surowy UNEE 180700Z 20005MPS 9999 BKN027CB 13/06 Q1006 R23/CLRD60 NOSIG RMK QFE732

VFR

13°C / 5°C

[Więcej]
Wiatr 220º 14kt
Widzialność >10km
Pogoda -
Chmury Broken Clouds 4300ft
Ciśn. atm. 1006
Zmień No Significant change
Surowy UNEE 180630Z 22007MPS 9999 BKN043CB 13/05 Q1006 R23/CLRD60 NOSIG RMK QFE732

MVFR

13°C / 6°C

[Więcej]
Wiatr 230º 10kt
Widzialność >10km
Pogoda -
Chmury Broken Clouds 2600ft
Ciśn. atm. 1006
Zmień No Significant change
Surowy UNEE 180600Z 23005MPS 9999 BKN026CB 13/06 Q1006 R23/CLRD60 NOSIG RMK QFE732

VFR

12°C / 5°C

[Więcej]
Wiatr 210º 10kt
Widzialność >10km
Pogoda -
Chmury Broken Clouds 4000ft
Ciśn. atm. 1006
Zmień No Significant change
Surowy UNEE 180530Z 21005MPS 9999 BKN040CB 12/05 Q1006 R23/CLRD60 NOSIG RMK QFE731

MVFR

13°C / 5°C

[Więcej]
Wiatr 230º 12kt
Widzialność >10km
Pogoda -
Chmury Broken Clouds 2600ft
Ciśn. atm. 1005
Zmień No Significant change
Surowy UNEE 180500Z 23006MPS 9999 BKN026CB 13/05 Q1005 R23/CLRD60 NOSIG RMK QFE731

TAF dla 55.27°N 86.11°E (UNEE)

From till


From till Wind 190º 6kt. Gust 16kt. Visibility 10km or more. Scattered Clouds 4000ft.
Temporarly from till Visibility 804.670m. Fog . Broken Clouds 200ft. Broken Clouds 1600ft.
Temporarly from till Wind 240º 12kt. Gust 23kt.

Surowy: TAF UNEE 181400Z 1815/1915 19003G08MPS 9999 SCT040CB TEMPO 1821/1901 0800 FG BKN002 BKN016CB TEMPO 1904/1909 24006G12MPS

Aktualne zdjęcia satelitarne i zdjęcia opadów deszczu dla 55.27°N 86.11°E

Wskaźnik lokalizacji znajduje się na 55.27°N 86.11°E. [Więcej]

Obraz satelitarny w czasie rzeczywistym łączy światło widzialne w ciągu dnia z promieniowaniem podczerwonym w nocy. W nocy obraz nie jest ciemny, ponieważ promieniowanie podczerwone może wykrywać różnice temperatur. Niestety niskie chmury i mgłę trudno odróżnić od temperatury gruntu, przez co mogą być prawie niewidoczne w nocy. Zdjęcia satelitarne Meteosat dla Europy są aktualizowane w czasie rzeczywistym co 5 minut. Obrazy GOES-16/GOES-17 (Ameryka Północna i Południowa) oraz Himawari (Azja) są aktualizowane co 10 minut.

Prawa autorskie 2021 EUMETSAT / meteoblue. / Prawa autorskie 2021 meteoblue

Radar i prognoza opadów na teraz dla 55.27°N 86.11°E

Mżawka
Lekki
Umiarkowane
Ulewne
Bardzo ciężkie
Grad

Wskaźnik lokalizacji jest umieszczony na 55.27°N 86.11°E. Animacja przedstawia radar opadów dla ostatniej godziny, jak również 1h prognozę pogody. Mżawka lub lekki opad śniegu może być niewidoczny dla radaru. Intensywność opadów jest oznaczona kolorami, od jasnoniebieskiego do pomarańczowego.